Time;durP1;ratioP1;P1;durP2;ratioP2;P2;SDS_P1;SDS_P2;PMS_P1;PMS_P2;Temp;Humidity;BMP_temperature;BMP_pressure;BME280_temperature;BME280_humidity;BME280_pressure;Samples;Min_cycle;Max_cycle;Signal;HPM_P1;HPM_P2
2021/09/08 00:00:41;;;;;;;26.33;23.63;;;17.60;99.90;;;;;;5039192;28;20508;-91
2021/09/08 00:03:08;;;;;;;25.20;22.60;;;17.50;99.90;;;;;;5048123;28;20444;-89
2021/09/08 00:05:35;;;;;;;27.30;24.70;;;17.50;99.90;;;;;;5044343;28;20444;-89
2021/09/08 00:08:02;;;;;;;25.10;22.17;;;17.50;99.90;;;;;;5054893;28;20447;-91
2021/09/08 00:10:29;;;;;;;27.20;24.40;;;17.40;99.90;;;;;;5057621;28;20437;-91
2021/09/08 00:12:57;;;;;;;26.80;23.90;;;17.40;99.90;;;;;;5041683;28;20474;-90
2021/09/08 00:15:24;;;;;;;26.67;23.40;;;17.30;99.90;;;;;;5046537;28;20831;-90
2021/09/08 00:17:51;;;;;;;25.93;23.10;;;17.20;99.90;;;;;;5053527;28;20467;-91
2021/09/08 00:20:19;;;;;;;24.50;21.87;;;17.30;99.90;;;;;;5045027;28;20529;-91
2021/09/08 00:22:46;;;;;;;24.17;21.80;;;17.20;99.90;;;;;;5046783;28;20437;-89
2021/09/08 00:25:14;;;;;;;29.63;24.57;;;17.20;99.90;;;;;;5034580;28;20462;-89
2021/09/08 00:27:41;;;;;;;25.03;22.60;;;17.20;99.90;;;;;;5034508;28;20983;-90
2021/09/08 00:30:11;;;;;;;25.93;23.13;;;17.20;99.90;;;;;;5034034;28;20445;-90
2021/09/08 00:32:38;;;;;;;26.90;23.80;;;17.10;99.90;;;;;;5039509;28;20460;-90
2021/09/08 00:35:05;;;;;;;28.83;23.53;;;17.10;99.90;;;;;;5041018;28;20951;-90
2021/09/08 00:37:32;;;;;;;26.27;23.57;;;17.00;99.90;;;;;;5033477;28;20834;-91
2021/09/08 00:39:59;;;;;;;26.03;23.23;;;17.00;99.90;;;;;;5034078;28;20464;-90
2021/09/08 00:42:26;;;;;;;28.40;23.73;;;16.90;99.90;;;;;;5034045;28;20458;-89
2021/09/08 00:44:53;;;;;;;25.23;22.67;;;16.80;99.90;;;;;;5033331;28;20449;-90
2021/09/08 00:47:21;;;;;;;24.20;21.90;;;16.80;99.90;;;;;;5033375;28;20469;-90
2021/09/08 00:49:47;;;;;;;25.33;22.70;;;16.80;99.90;;;;;;5037380;28;20441;-90
2021/09/08 00:52:16;;;;;;;24.23;21.83;;;16.80;99.90;;;;;;5035287;28;20450;-91
2021/09/08 00:54:47;;;;;;;26.10;23.60;;;16.80;99.90;;;;;;5033569;28;20489;-90
2021/09/08 00:57:15;;;;;;;25.80;22.70;;;16.80;99.90;;;;;;5034626;28;20500;-90
2021/09/08 00:59:42;;;;;;;26.67;23.87;;;16.80;99.90;;;;;;5055173;28;20442;-91
2021/09/08 01:02:09;;;;;;;23.83;21.50;;;16.70;99.90;;;;;;5054516;28;20494;-92
2021/09/08 01:04:37;;;;;;;25.93;23.30;;;16.70;99.90;;;;;;5057771;28;20513;-92
2021/09/08 01:07:05;;;;;;;26.33;23.57;;;16.50;99.90;;;;;;5045624;28;20437;-92
2021/09/08 01:12:16;;;;;;;25.87;23.07;;;16.60;99.90;;;;;;5050997;28;20475;-89
2021/09/08 01:14:44;;;;;;;26.10;23.50;;;16.50;99.90;;;;;;5043307;28;20587;-89
2021/09/08 01:17:10;;;;;;;25.00;22.47;;;16.60;99.90;;;;;;5034819;28;20465;-89
2021/09/08 01:19:39;;;;;;;26.83;24.27;;;16.50;99.90;;;;;;5055817;28;20445;-91
2021/09/08 01:22:06;;;;;;;24.77;22.17;;;16.50;99.90;;;;;;5044609;28;20449;-91
2021/09/08 01:24:34;;;;;;;24.50;21.87;;;16.40;99.90;;;;;;5036855;28;20441;-91
2021/09/08 01:27:00;;;;;;;28.00;25.07;;;16.40;99.90;;;;;;5036549;28;20477;-88
2021/09/08 01:29:27;;;;;;;26.73;23.90;;;16.30;99.90;;;;;;5036634;28;20829;-89
2021/09/08 01:31:58;;;;;;;27.53;24.73;;;16.30;99.90;;;;;;5047749;28;20456;-90
2021/09/08 01:34:25;;;;;;;27.47;24.67;;;16.20;99.90;;;;;;5046151;28;20512;-89
2021/09/08 01:36:53;;;;;;;26.77;24.00;;;16.20;99.90;;;;;;5042083;28;20492;-89
2021/09/08 01:39:20;;;;;;;26.27;23.57;;;16.20;99.90;;;;;;5039795;28;20936;-89
2021/09/08 01:41:50;;;;;;;26.53;24.03;;;16.30;99.90;;;;;;5037696;28;20472;-90
2021/09/08 01:44:21;;;;;;;25.57;22.97;;;16.20;99.90;;;;;;5040451;28;20437;-89
2021/09/08 01:46:49;;;;;;;25.13;22.53;;;16.10;99.90;;;;;;5051332;28;20454;-89
2021/09/08 01:49:16;;;;;;;26.50;23.53;;;16.10;99.90;;;;;;5039413;28;20520;-90
2021/09/08 01:51:43;;;;;;;24.73;22.07;;;16.00;99.90;;;;;;5033921;28;20450;-90
2021/09/08 01:54:09;;;;;;;25.53;23.00;;;16.10;99.90;;;;;;5040561;28;20485;-91
2021/09/08 01:56:36;;;;;;;27.00;23.87;;;16.10;99.90;;;;;;5042610;28;20461;-90
2021/09/08 01:59:05;;;;;;;24.87;22.37;;;15.90;99.90;;;;;;5053894;28;20468;-90
2021/09/08 02:01:31;;;;;;;25.83;23.33;;;16.00;99.90;;;;;;5054727;28;20426;-90
2021/09/08 02:03:58;;;;;;;28.77;24.60;;;16.00;99.90;;;;;;5051468;28;20425;-89
2021/09/08 02:06:26;;;;;;;31.00;26.97;;;15.90;99.90;;;;;;5044393;28;20987;-90
2021/09/08 02:08:54;;;;;;;28.40;25.27;;;15.90;99.90;;;;;;5038312;28;20449;-90
2021/09/08 02:11:21;;;;;;;26.60;23.47;;;15.90;99.90;;;;;;5040743;28;20455;-89
2021/09/08 02:13:48;;;;;;;30.10;24.10;;;15.90;99.90;;;;;;5039838;28;21048;-89
2021/09/08 02:19:02;;;;;;;26.47;23.77;;;15.80;99.90;;;;;;5047532;28;20425;-89
2021/09/08 02:21:29;;;;;;;28.73;24.30;;;15.80;99.90;;;;;;5037180;28;20437;-89
2021/09/08 02:23:56;;;;;;;28.30;25.30;;;15.70;99.90;;;;;;5044325;28;20763;-91
2021/09/08 02:26:22;;;;;;;27.30;24.40;;;15.60;99.90;;;;;;5039711;28;20472;-89
2021/09/08 02:28:49;;;;;;;26.67;24.10;;;15.60;99.90;;;;;;5046479;28;20456;-90
2021/09/08 02:31:17;;;;;;;27.07;24.27;;;15.60;99.90;;;;;;5045661;28;20455;-90
2021/09/08 02:33:44;;;;;;;25.30;22.90;;;15.60;99.90;;;;;;5035598;28;20480;-89
2021/09/08 02:36:11;;;;;;;25.07;21.50;;;15.60;99.90;;;;;;5035539;28;20469;-89
2021/09/08 02:38:37;;;;;;;22.87;20.50;;;15.60;99.90;;;;;;5035003;28;20821;-90
2021/09/08 02:41:07;;;;;;;24.97;22.20;;;15.60;99.90;;;;;;5035626;28;20448;-90
2021/09/08 02:43:34;;;;;;;27.27;23.53;;;15.50;99.90;;;;;;5036047;28;20445;-89
2021/09/08 02:46:03;;;;;;;25.37;22.77;;;15.50;99.90;;;;;;5037644;28;21015;-89
2021/09/08 02:48:31;;;;;;;26.87;23.60;;;15.50;99.90;;;;;;5035442;28;20543;-90
2021/09/08 02:50:58;;;;;;;25.43;22.80;;;15.50;99.90;;;;;;5035595;28;20456;-90
2021/09/08 02:53:24;;;;;;;26.20;23.60;;;15.50;99.90;;;;;;5036722;28;20453;-90
2021/09/08 02:55:51;;;;;;;28.10;23.87;;;15.50;99.90;;;;;;5035837;28;20484;-89
2021/09/08 02:58:18;;;;;;;26.63;24.10;;;15.50;99.90;;;;;;5050986;28;20445;-89
2021/09/08 03:00:45;;;;;;;27.23;24.50;;;15.40;99.90;;;;;;5045664;28;20512;-89
2021/09/08 03:03:11;;;;;;;26.93;23.47;;;15.50;99.90;;;;;;5057921;28;20449;-89
2021/09/08 03:05:40;;;;;;;27.83;24.93;;;15.40;99.90;;;;;;5041653;28;20441;-91
2021/09/08 03:08:06;;;;;;;27.00;24.30;;;15.30;99.90;;;;;;5059033;28;20442;-90
2021/09/08 03:10:35;;;;;;;27.63;24.73;;;15.20;99.90;;;;;;5050899;28;20989;-90
2021/09/08 03:13:02;;;;;;;27.17;24.20;;;15.30;99.90;;;;;;5044243;28;20523;-89
2021/09/08 03:15:29;;;;;;;29.33;26.27;;;15.30;99.90;;;;;;5038633;28;20480;-90
2021/09/08 03:17:55;;;;;;;27.13;24.33;;;15.20;99.90;;;;;;5036850;28;20447;-90
2021/09/08 03:20:22;;;;;;;26.83;24.07;;;15.30;99.90;;;;;;5056352;28;20504;-90
2021/09/08 03:22:51;;;;;;;28.10;24.97;;;15.30;99.90;;;;;;5059312;28;20507;-89
2021/09/08 03:25:18;;;;;;;31.43;25.47;;;15.20;99.90;;;;;;5054389;28;20481;-90
2021/09/08 03:30:28;;;;;;;26.87;24.07;;;15.10;99.90;;;;;;5498685;23;20485;-88
2021/09/08 03:32:55;;;;;;;27.27;24.30;;;15.10;99.90;;;;;;5053135;28;20498;-91
2021/09/08 03:35:22;;;;;;;27.77;24.97;;;15.10;99.90;;;;;;5049881;28;20481;-89
2021/09/08 03:37:51;;;;;;;35.90;26.80;;;15.10;99.90;;;;;;5054589;28;20558;-89
2021/09/08 03:40:17;;;;;;;28.30;24.90;;;15.10;99.90;;;;;;5056419;28;20441;-90
2021/09/08 03:42:46;;;;;;;28.73;25.73;;;15.10;99.90;;;;;;5058816;28;20519;-90
2021/09/08 03:45:14;;;;;;;33.37;24.67;;;15.10;99.90;;;;;;5058285;28;20508;-90
2021/09/08 03:47:41;;;;;;;27.07;24.30;;;15.10;99.90;;;;;;5057679;28;20472;-90
2021/09/08 03:50:09;;;;;;;28.37;25.47;;;15.10;99.90;;;;;;5057269;28;20549;-90
2021/09/08 03:52:37;;;;;;;31.50;27.73;;;15.00;99.90;;;;;;5054832;28;20464;-90
2021/09/08 03:55:06;;;;;;;29.03;24.70;;;15.00;99.90;;;;;;5051275;28;20836;-90
2021/09/08 03:57:33;;;;;;;29.43;26.33;;;14.90;99.90;;;;;;5050282;28;20484;-89
2021/09/08 03:59:59;;;;;;;31.00;26.80;;;14.80;99.90;;;;;;5039224;28;20456;-89
2021/09/08 04:02:26;;;;;;;30.90;26.03;;;14.80;99.90;;;;;;5048875;28;20481;-88
2021/09/08 04:04:53;;;;;;;26.40;23.63;;;14.80;99.90;;;;;;5055888;28;20485;-89
2021/09/08 04:07:20;;;;;;;29.13;26.10;;;14.80;99.90;;;;;;5052506;28;20431;-90
2021/09/08 04:09:46;;;;;;;28.93;25.40;;;14.80;99.90;;;;;;5049398;28;20496;-90
2021/09/08 04:17:55;;;;;;;29.87;26.57;;;14.70;99.90;;;;;;5125109;28;20524;-91
2021/09/08 04:20:22;;;;;;;27.70;24.67;;;14.70;99.90;;;;;;5120622;28;20461;-91
2021/09/08 04:22:49;;;;;;;27.40;24.60;;;14.60;99.90;;;;;;5118531;28;20444;-90
2021/09/08 04:25:16;;;;;;;25.13;22.67;;;14.70;99.90;;;;;;5122618;28;20899;-91
2021/09/08 04:27:43;;;;;;;24.90;22.20;;;14.60;99.90;;;;;;5119137;28;20453;-91
2021/09/08 04:30:12;;;;;;;24.73;22.20;;;14.60;99.90;;;;;;5124992;28;20444;-90
2021/09/08 04:32:39;;;;;;;27.90;24.97;;;14.60;99.90;;;;;;5125837;28;20450;-92
2021/09/08 04:37:53;;;;;;;26.00;23.30;;;14.60;99.90;;;;;;5121613;28;20453;-89
2021/09/08 04:40:20;;;;;;;25.80;22.57;;;14.60;99.90;;;;;;5116465;28;20819;-89
2021/09/08 04:42:47;;;;;;;27.73;23.30;;;14.50;99.90;;;;;;5112826;28;20439;-90
2021/09/08 04:45:15;;;;;;;27.30;23.77;;;14.50;99.90;;;;;;5112839;28;20444;-89
2021/09/08 04:47:41;;;;;;;26.77;23.50;;;14.50;99.90;;;;;;5112786;28;20473;-89
2021/09/08 04:50:09;;;;;;;25.77;23.17;;;14.60;99.90;;;;;;5110366;28;20439;-91
2021/09/08 04:52:35;;;;;;;26.10;23.40;;;14.60;99.90;;;;;;5115958;28;20440;-92
2021/09/08 04:55:03;;;;;;;31.73;25.90;;;14.50;99.90;;;;;;5134933;28;20493;-91
2021/09/08 04:57:30;;;;;;;36.60;25.83;;;14.50;99.90;;;;;;5116480;28;20541;-91
2021/09/08 04:59:57;;;;;;;35.70;25.47;;;14.50;99.90;;;;;;5110787;28;20951;-90
2021/09/08 05:02:25;;;;;;;28.27;25.20;;;14.50;99.90;;;;;;5111236;28;20441;-90
2021/09/08 05:04:52;;;;;;;32.90;25.03;;;14.50;99.90;;;;;;5131964;28;20434;-92
2021/09/08 05:07:18;;;;;;;32.53;24.83;;;14.60;99.90;;;;;;5116060;28;20454;-91
2021/09/08 05:09:45;;;;;;;26.67;23.73;;;14.60;99.90;;;;;;5111342;28;20876;-89
2021/09/08 05:12:12;;;;;;;29.10;24.30;;;14.50;99.90;;;;;;5110291;28;20458;-90
2021/09/08 05:14:39;;;;;;;25.83;22.57;;;14.60;99.90;;;;;;5115442;28;20478;-91
2021/09/08 05:17:07;;;;;;;26.40;23.20;;;14.60;99.90;;;;;;5123080;28;20468;-91
2021/09/08 05:19:36;;;;;;;27.47;24.40;;;14.60;99.90;;;;;;5112479;28;20442;-89
2021/09/08 05:22:03;;;;;;;39.23;27.47;;;14.70;99.90;;;;;;5114404;28;20660;-89
2021/09/08 05:24:29;;;;;;;32.97;26.83;;;14.60;99.90;;;;;;5120516;28;20434;-88
2021/09/08 05:26:56;;;;;;;35.43;24.80;;;14.60;99.90;;;;;;5098273;28;20465;-88
2021/09/08 05:29:23;;;;;;;30.03;24.13;;;14.60;99.90;;;;;;5096969;28;20954;-87
2021/09/08 05:31:49;;;;;;;28.93;23.60;;;14.60;99.90;;;;;;5107168;28;20460;-87
2021/09/08 05:34:17;;;;;;;28.00;23.33;;;14.70;99.90;;;;;;5117447;28;20478;-86
2021/09/08 05:36:47;;;;;;;25.77;22.97;;;14.60;99.90;;;;;;5124134;22;20494;-86
2021/09/08 05:39:13;;;;;;;27.23;24.20;;;14.70;99.90;;;;;;5084185;28;20492;-88
2021/09/08 05:41:40;;;;;;;29.53;24.33;;;14.60;99.90;;;;;;5077709;28;20430;-89
2021/09/08 05:44:07;;;;;;;31.47;23.80;;;14.60;99.90;;;;;;5082582;28;20469;-87
2021/09/08 05:46:33;;;;;;;27.43;23.83;;;14.70;99.90;;;;;;5084143;28;20991;-89
2021/09/08 05:49:00;;;;;;;28.93;24.50;;;14.70;99.90;;;;;;5098038;28;20445;-89
2021/09/08 05:51:27;;;;;;;25.90;23.23;;;14.60;99.90;;;;;;5112379;28;20453;-89
2021/09/08 05:53:55;;;;;;;28.17;25.13;;;14.70;99.90;;;;;;5111844;28;20994;-88
2021/09/08 05:56:22;;;;;;;28.30;22.40;;;14.80;99.90;;;;;;5099254;28;20472;-88
2021/09/08 05:58:48;;;;;;;28.57;24.40;;;14.90;99.90;;;;;;5098023;28;20448;-89
2021/09/08 06:01:15;;;;;;;25.77;23.27;;;14.90;99.90;;;;;;5099473;28;20446;-89
2021/09/08 06:03:42;;;;;;;26.30;23.17;;;14.90;99.90;;;;;;5098390;28;20822;-88
2021/09/08 06:06:08;;;;;;;25.67;23.07;;;15.00;99.90;;;;;;5096989;28;20457;-89
2021/09/08 06:08:35;;;;;;;28.93;22.97;;;15.10;99.90;;;;;;5105234;28;20788;-89
2021/09/08 06:11:03;;;;;;;26.53;23.73;;;15.20;99.90;;;;;;5104377;28;20454;-89
2021/09/08 06:13:30;;;;;;;25.60;22.50;;;15.20;99.90;;;;;;5100620;28;20454;-90
2021/09/08 06:15:57;;;;;;;29.90;24.73;;;15.20;99.90;;;;;;5100080;28;20438;-89
2021/09/08 06:18:24;;;;;;;26.73;23.93;;;15.30;99.90;;;;;;5097998;28;20441;-94
2021/09/08 06:20:50;;;;;;;29.67;25.73;;;15.30;99.90;;;;;;5102770;28;20503;-90
2021/09/08 06:23:17;;;;;;;27.50;23.77;;;15.40;99.90;;;;;;5108805;28;20444;-88
2021/09/08 06:25:44;;;;;;;27.07;22.47;;;15.40;99.90;;;;;;5102654;28;20441;-89
2021/09/08 06:28:12;;;;;;;25.43;23.07;;;15.60;99.90;;;;;;5099141;28;20469;-89
2021/09/08 06:30:39;;;;;;;27.00;24.23;;;15.70;99.90;;;;;;5098312;28;20446;-90
2021/09/08 06:33:06;;;;;;;29.30;26.27;;;15.80;99.90;;;;;;5101513;28;20477;-89
2021/09/08 06:35:33;;;;;;;25.90;23.10;;;15.80;99.90;;;;;;5105278;28;20463;-89
2021/09/08 06:37:59;;;;;;;24.90;22.27;;;15.90;99.90;;;;;;5110163;28;20480;-89
2021/09/08 06:40:26;;;;;;;26.13;23.50;;;16.00;99.90;;;;;;5095234;28;20458;-90
2021/09/08 06:42:53;;;;;;;25.53;22.03;;;16.10;99.90;;;;;;5095653;28;20439;-90
2021/09/08 06:45:21;;;;;;;25.27;22.97;;;16.20;99.90;;;;;;5095200;28;20446;-90
2021/09/08 06:47:48;;;;;;;26.37;23.57;;;16.40;99.90;;;;;;5109364;28;20458;-90
2021/09/08 06:50:14;;;;;;;26.80;24.07;;;16.50;99.90;;;;;;5094556;28;20435;-90
2021/09/08 06:52:41;;;;;;;27.73;24.90;;;16.60;99.90;;;;;;5095159;28;20431;-90
2021/09/08 06:55:08;;;;;;;26.90;24.20;;;16.70;99.90;;;;;;5095567;28;20489;-90
2021/09/08 06:57:35;;;;;;;27.20;24.50;;;16.80;99.90;;;;;;5095704;28;20540;-90
2021/09/08 07:00:02;;;;;;;25.97;23.47;;;16.90;99.90;;;;;;5094394;28;20442;-90
2021/09/08 07:02:30;;;;;;;24.67;22.17;;;17.00;99.90;;;;;;5094145;28;20446;-90
2021/09/08 07:04:57;;;;;;;23.33;21.13;;;17.20;99.90;;;;;;5094631;28;20439;-89
2021/09/08 07:07:23;;;;;;;25.80;22.80;;;17.30;99.90;;;;;;5095694;28;20989;-90
2021/09/08 07:09:50;;;;;;;24.73;22.33;;;17.40;99.90;;;;;;5095738;28;20454;-90
2021/09/08 07:12:17;;;;;;;22.83;20.43;;;17.60;99.90;;;;;;5095988;28;20438;-90
2021/09/08 07:14:43;;;;;;;23.97;21.67;;;17.80;99.90;;;;;;5095642;28;20981;-90
2021/09/08 07:17:10;;;;;;;24.63;21.50;;;18.00;99.90;;;;;;5097635;28;20466;-90
2021/09/08 07:19:38;;;;;;;21.83;19.53;;;18.50;99.90;;;;;;5096848;28;20451;-90
2021/09/08 07:22:05;;;;;;;20.83;18.67;;;19.80;99.90;;;;;;5096376;28;20444;-90
2021/09/08 07:24:32;;;;;;;19.83;16.90;;;21.70;99.90;;;;;;5108973;28;20498;-87
2021/09/08 07:26:59;;;;;;;18.53;16.70;;;22.70;98.40;;;;;;5102348;28;20466;-87
2021/09/08 07:29:26;;;;;;;17.13;15.53;;;23.30;96.20;;;;;;5094345;28;20436;-90
2021/09/08 07:31:53;;;;;;;15.23;13.83;;;23.60;94.20;;;;;;5093482;28;20558;-90
2021/09/08 07:34:20;;;;;;;16.23;14.80;;;24.40;91.50;;;;;;5095654;28;20441;-87
2021/09/08 07:36:48;;;;;;;15.20;13.80;;;25.00;88.50;;;;;;5102146;28;20975;-91
2021/09/08 07:39:15;;;;;;;13.90;12.70;;;24.70;86.10;;;;;;5093038;28;20446;-91
2021/09/08 07:41:42;;;;;;;13.43;12.23;;;24.30;85.70;;;;;;5093119;28;20449;-90
2021/09/08 07:44:09;;;;;;;14.37;12.87;;;23.80;85.70;;;;;;5096734;28;20534;-91
2021/09/08 07:46:36;;;;;;;14.33;13.03;;;23.80;85.80;;;;;;5101658;28;20480;-90
2021/09/08 07:49:03;;;;;;;14.93;12.93;;;23.70;86.00;;;;;;5105974;28;20449;-90
2021/09/08 07:51:29;;;;;;;16.77;13.87;;;24.00;85.00;;;;;;5117742;28;20456;-90
2021/09/08 07:53:59;;;;;;;14.37;13.07;;;24.50;82.50;;;;;;5100150;28;20453;-91
2021/09/08 07:56:25;;;;;;;13.50;12.20;;;24.10;82.00;;;;;;5103910;28;20466;-90
2021/09/08 07:58:52;;;;;;;13.77;12.33;;;23.70;84.00;;;;;;5113964;28;20453;-90
2021/09/08 08:01:19;;;;;;;12.93;11.53;;;23.20;84.90;;;;;;5110735;28;20448;-88
2021/09/08 08:03:46;;;;;;;12.00;10.93;;;23.00;85.70;;;;;;5111951;28;20441;-90
2021/09/08 08:06:12;;;;;;;14.23;11.17;;;22.60;86.50;;;;;;5097824;28;20488;-87
2021/09/08 08:08:39;;;;;;;13.93;12.70;;;22.30;87.20;;;;;;5103223;28;20445;-88
2021/09/08 08:11:07;;;;;;;13.03;11.83;;;22.20;88.80;;;;;;5094816;28;20925;-88
2021/09/08 08:13:34;;;;;;;12.17;11.00;;;22.10;88.60;;;;;;5095249;28;20451;-90
2021/09/08 08:16:01;;;;;;;12.00;11.00;;;22.10;89.00;;;;;;5094719;28;20454;-88
2021/09/08 08:18:28;;;;;;;12.23;11.03;;;22.10;89.10;;;;;;5099016;28;20432;-88
2021/09/08 08:20:55;;;;;;;12.87;10.83;;;22.10;89.20;;;;;;5116396;28;20439;-86
2021/09/08 08:23:22;;;;;;;12.27;11.10;;;22.10;89.10;;;;;;5117924;28;20431;-87
2021/09/08 08:25:49;;;;;;;13.53;11.13;;;22.20;89.80;;;;;;5117636;28;20471;-88
2021/09/08 08:28:17;;;;;;;12.10;10.80;;;22.30;88.70;;;;;;5117461;28;20446;-88
2021/09/08 08:30:44;;;;;;;11.40;10.47;;;22.20;90.00;;;;;;5117408;28;20433;-87
2021/09/08 08:33:11;;;;;;;11.23;10.30;;;23.00;88.70;;;;;;5117254;28;20440;-89
2021/09/08 08:35:38;;;;;;;12.10;10.90;;;23.40;86.80;;;;;;5110108;28;20453;-91
2021/09/08 08:38:04;;;;;;;10.97;10.07;;;24.30;83.90;;;;;;5094966;28;20478;-90
2021/09/08 08:40:31;;;;;;;12.53;10.13;;;25.50;81.30;;;;;;5094918;28;20446;-91
2021/09/08 08:42:58;;;;;;;10.63;9.73;;;27.50;76.60;;;;;;5094116;28;20489;-89
2021/09/08 08:45:27;;;;;;;11.60;10.60;;;28.70;69.20;;;;;;5094987;28;20487;-89
2021/09/08 08:47:54;;;;;;;13.00;10.47;;;29.00;65.80;;;;;;5098123;28;20462;-88
2021/09/08 08:50:24;;;;;;;12.93;11.60;;;29.00;66.60;;;;;;5108538;28;20445;-89
2021/09/08 08:52:50;;;;;;;10.80;9.83;;;29.90;61.90;;;;;;5099709;28;20454;-89
2021/09/08 08:55:17;;;;;;;11.20;10.10;;;29.30;63.00;;;;;;5095270;28;20435;-90
2021/09/08 08:57:48;;;;;;;11.57;10.47;;;29.20;64.00;;;;;;5095301;28;20462;-89
2021/09/08 09:00:15;;;;;;;9.90;9.10;;;30.10;61.30;;;;;;5094918;28;20645;-89
2021/09/08 09:02:47;;;;;;;11.00;10.00;;;30.70;59.20;;;;;;5096423;28;20947;-90
2021/09/08 09:05:29;;;;;;;11.97;10.90;;;32.00;56.80;;;;;;5097771;28;20481;-90
2021/09/08 09:07:55;;;;;;;10.57;9.40;;;33.90;54.40;;;;;;5104312;28;20473;-90
2021/09/08 09:10:23;;;;;;;10.67;9.77;;;35.10;50.80;;;;;;5106850;28;20812;-90
2021/09/08 09:12:49;;;;;;;10.43;9.60;;;35.40;48.70;;;;;;5099053;28;20794;-90
2021/09/08 09:15:18;;;;;;;11.13;10.27;;;34.40;48.00;;;;;;5096376;28;20441;-90
2021/09/08 09:17:47;;;;;;;11.53;10.53;;;35.10;47.60;;;;;;5095988;28;20458;-90
2021/09/08 09:20:16;;;;;;;11.77;10.70;;;34.80;47.80;;;;;;5095936;28;20444;-90
2021/09/08 09:22:44;;;;;;;11.43;10.47;;;34.80;46.60;;;;;;5096852;28;20821;-90
2021/09/08 09:25:13;;;;;;;12.50;11.30;;;34.10;48.10;;;;;;5096047;28;20482;-89
2021/09/08 09:27:50;;;;;;;9.90;9.00;;;35.60;46.90;;;;;;5096356;28;20994;-89
2021/09/08 09:30:19;;;;;;;10.77;9.87;;;36.70;42.80;;;;;;5096303;28;20447;-89
2021/09/08 09:32:49;;;;;;;11.00;10.00;;;37.30;41.20;;;;;;5095626;28;20451;-89
2021/09/08 09:35:18;;;;;;;11.30;10.30;;;37.80;40.60;;;;;;5099246;28;20434;-89
2021/09/08 09:37:47;;;;;;;10.07;9.20;;;38.20;38.70;;;;;;5104224;28;20476;-90
2021/09/08 09:40:15;;;;;;;9.33;8.60;;;37.20;39.40;;;;;;5096642;28;20450;-90
2021/09/08 09:42:43;;;;;;;9.20;8.47;;;36.20;40.50;;;;;;5098842;28;20411;-89
2021/09/08 09:45:12;;;;;;;9.97;9.17;;;36.60;40.40;;;;;;5107614;28;20481;-89
2021/09/08 09:47:40;;;;;;;9.80;9.00;;;36.20;40.80;;;;;;5102780;28;20473;-91
2021/09/08 09:50:11;;;;;;;10.20;9.33;;;36.60;40.40;;;;;;5103566;28;20447;-92
2021/09/08 09:52:38;;;;;;;9.70;9.00;;;37.70;39.50;;;;;;5117284;28;20435;-90
2021/09/08 09:55:06;;;;;;;9.40;8.70;;;37.00;39.50;;;;;;5117675;28;20445;-92
2021/09/08 09:57:34;;;;;;;8.80;8.10;;;36.20;40.60;;;;;;5101589;28;20474;-91
2021/09/08 10:00:01;;;;;;;9.87;9.07;;;37.00;39.70;;;;;;5103701;28;20442;-92
2021/09/08 10:02:28;;;;;;;10.00;9.07;;;37.80;39.10;;;;;;5106750;28;20498;-90
2021/09/08 10:04:55;;;;;;;9.90;9.00;;;37.40;38.80;;;;;;5106296;28;20840;-89
2021/09/08 10:07:24;;;;;;;9.60;8.80;;;35.90;40.50;;;;;;5100515;28;20783;-91
2021/09/08 10:09:59;;;;;;;10.33;9.53;;;36.30;41.90;;;;;;5101857;28;20475;-90
2021/09/08 10:12:33;;;;;;;9.43;8.67;;;36.00;39.80;;;;;;5116384;28;20497;-90
2021/09/08 10:15:03;;;;;;;10.23;9.37;;;35.80;41.30;;;;;;5108676;28;20443;-90
2021/09/08 10:17:51;;;;;;;9.90;9.10;;;36.30;40.20;;;;;;5103931;28;20463;-94
2021/09/08 10:20:21;;;;;;;9.80;9.10;;;37.30;39.10;;;;;;5100735;28;20447;-90
2021/09/08 10:22:58;;;;;;;8.70;8.00;;;38.20;38.10;;;;;;5106315;28;20503;-93
2021/09/08 10:29:10;;;;;;;9.50;8.70;;;36.90;39.60;;;;;;5113368;28;20483;-95
2021/09/08 10:32:01;;;;;;;9.87;8.93;;;36.70;39.50;;;;;;5119188;28;20435;-92
2021/09/08 10:34:44;;;;;;;10.57;9.67;;;36.90;38.70;;;;;;5118768;28;20461;-91
2021/09/08 10:43:23;;;;;;;9.30;8.50;;;36.40;39.10;;;;;;5295129;22;20505;-93
2021/09/08 10:55:55;;;;;;;10.50;9.33;;;36.60;40.20;;;;;;4991056;28;20432;-92
2021/09/08 10:59:15;;;;;;;9.43;8.63;;;38.30;39.00;;;;;;5051897;28;20457;-94
2021/09/08 11:01:47;;;;;;;9.07;8.27;;;38.20;37.10;;;;;;5053282;28;20461;-92
2021/09/08 11:04:17;;;;;;;9.60;8.80;;;37.60;38.20;;;;;;5041945;28;20875;-90
2021/09/08 11:06:47;;;;;;;8.73;8.10;;;37.80;37.30;;;;;;5038709;28;20499;-90
2021/09/08 11:09:20;;;;;;;10.77;9.20;;;38.50;36.80;;;;;;5037979;28;20453;-91
2021/09/08 11:12:05;;;;;;;8.63;8.00;;;37.90;36.80;;;;;;5037948;28;20449;-90
2021/09/08 11:14:48;;;;;;;9.00;8.27;;;38.10;37.30;;;;;;5030950;28;20457;-90
2021/09/08 11:17:25;;;;;;;9.77;8.67;;;39.10;36.40;;;;;;5043536;28;20465;-91
2021/09/08 11:19:56;;;;;;;9.63;8.93;;;38.10;36.60;;;;;;5043822;28;20417;-91
2021/09/08 11:22:27;;;;;;;8.40;7.70;;;37.20;38.00;;;;;;5044231;28;20996;-91
2021/09/08 11:25:13;;;;;;;8.50;7.90;;;37.60;37.20;;;;;;5039306;28;20449;-90
2021/09/08 11:27:53;;;;;;;7.90;7.30;;;38.40;36.20;;;;;;5042318;28;20522;-92
2021/09/08 11:30:29;;;;;;;8.00;7.40;;;39.40;34.60;;;;;;5042186;28;20429;-91
2021/09/08 11:33:01;;;;;;;8.63;7.93;;;40.60;33.20;;;;;;5053837;28;20475;-89
2021/09/08 11:35:45;;;;;;;8.70;8.10;;;41.20;32.70;;;;;;5045481;28;20460;-92
2021/09/08 11:38:32;;;;;;;9.63;8.93;;;42.70;31.50;;;;;;5043757;28;20519;-93
2021/09/08 11:41:02;;;;;;;9.43;8.63;;;40.60;32.70;;;;;;5050457;28;20445;-94
2021/09/08 11:43:45;;;;;;;8.40;7.70;;;38.60;34.70;;;;;;5050312;28;20481;-93
2021/09/08 11:46:36;;;;;;;8.60;7.83;;;38.90;35.50;;;;;;5043187;28;20483;-94
2021/09/08 11:56:18;;;;;;;8.03;7.43;;;39.30;33.40;;;;;;5280176;22;20456;-92
2021/09/08 12:19:06;;;;;;;8.13;7.43;;;40.50;32.30;;;;;;6177167;23;20463;-88
2021/09/08 12:21:35;;;;;;;8.63;7.83;;;40.00;32.20;;;;;;6143324;23;21072;-88
2021/09/08 12:24:21;;;;;;;8.43;7.83;;;39.30;32.70;;;;;;6134401;23;20400;-89
2021/09/08 12:26:48;;;;;;;7.93;7.27;;;38.80;33.30;;;;;;6134610;23;20447;-89
2021/09/08 12:29:15;;;;;;;8.23;7.63;;;38.90;34.20;;;;;;6134611;23;20398;-90
2021/09/08 12:31:50;;;;;;;7.87;7.37;;;39.60;33.00;;;;;;6134917;23;20474;-89
2021/09/08 12:34:18;;;;;;;9.67;8.80;;;39.10;32.70;;;;;;6134159;23;20409;-91
2021/09/08 12:36:46;;;;;;;8.50;7.90;;;39.50;32.50;;;;;;6133666;23;20425;-89
2021/09/08 12:39:23;;;;;;;9.37;8.23;;;40.70;31.60;;;;;;6134583;23;20411;-90
2021/09/08 12:41:55;;;;;;;7.80;7.20;;;42.10;30.40;;;;;;6134440;23;20415;-89
2021/09/08 12:44:29;;;;;;;8.20;7.50;;;43.20;29.00;;;;;;6133828;23;20396;-90
2021/09/08 12:46:56;;;;;;;8.87;7.20;;;43.00;29.10;;;;;;6134862;23;20451;-90
2021/09/08 12:49:25;;;;;;;7.23;6.57;;;42.80;29.00;;;;;;6134696;23;20874;-89
2021/09/08 12:51:53;;;;;;;7.73;7.13;;;42.20;29.10;;;;;;6134789;23;20419;-89
2021/09/08 12:54:20;;;;;;;7.70;7.00;;;41.30;29.80;;;;;;6134412;23;20411;-89
2021/09/08 12:56:48;;;;;;;8.03;7.43;;;40.70;30.40;;;;;;6135138;23;20751;-89
2021/09/08 12:59:27;;;;;;;7.10;6.50;;;39.70;31.80;;;;;;6155040;23;20403;-88
2021/09/08 13:01:54;;;;;;;9.90;6.63;;;39.90;31.40;;;;;;6134223;23;20411;-89
2021/09/08 13:04:22;;;;;;;7.63;6.90;;;39.60;31.60;;;;;;6134891;23;20402;-89
2021/09/08 13:06:50;;;;;;;6.70;6.20;;;39.20;31.60;;;;;;6134632;23;20458;-89
2021/09/08 13:09:17;;;;;;;8.30;7.03;;;39.50;31.90;;;;;;6135469;23;20754;-88
2021/09/08 13:11:45;;;;;;;6.40;5.90;;;38.70;32.00;;;;;;6138957;23;20758;-89
2021/09/08 13:14:11;;;;;;;6.57;6.07;;;38.70;32.30;;;;;;6142234;23;20413;-89
2021/09/08 13:16:39;;;;;;;6.43;5.93;;;38.20;32.00;;;;;;6155449;23;20461;-92
2021/09/08 13:19:07;;;;;;;6.80;6.20;;;38.00;32.20;;;;;;6177220;23;20600;-89
2021/09/08 13:21:35;;;;;;;6.73;6.13;;;38.60;32.00;;;;;;6174719;23;20407;-90
2021/09/08 13:24:04;;;;;;;6.60;6.10;;;39.00;30.80;;;;;;6178984;23;20478;-89
2021/09/08 13:26:31;;;;;;;5.80;5.30;;;38.70;30.90;;;;;;6164763;23;20442;-88
2021/09/08 13:28:58;;;;;;;10.27;5.70;;;38.20;31.00;;;;;;6168753;23;20587;-90
2021/09/08 13:31:28;;;;;;;7.30;6.60;;;37.20;32.00;;;;;;6165638;23;20414;-90
2021/09/08 13:33:55;;;;;;;7.57;6.67;;;36.10;33.70;;;;;;6158773;23;20477;-90
2021/09/08 13:36:22;;;;;;;8.37;7.67;;;35.30;35.20;;;;;;6159734;23;20419;-89
2021/09/08 13:38:48;;;;;;;8.00;7.40;;;35.40;36.00;;;;;;6175059;23;20413;-88
2021/09/08 13:41:16;;;;;;;7.80;7.10;;;34.40;37.80;;;;;;6177029;23;20418;-89
2021/09/08 13:43:44;;;;;;;8.20;7.40;;;33.50;39.00;;;;;;6164555;23;20501;-88